FYWH/WDH METAR and TAF weather

Enter ICAO airport designator
Station Type Date Time Source
FYWH METAR 2019/05/23 18:00 UTC NOAA

FYWH 231800Z 15004KT 9999 FEW050CB BKN100 20/M05 Q1027 NOSIG


Station Type Date Time Source
FYWH Decoded METAR 2019/05/23 18:00 UTC NOAA

J. G. Strijdom, Namibia (FYWH) 22-29S 017-28E 1700M
May 23, 2019 - 02:00 PM EDT / 2019.05.23 1800 UTC
Wind: from the SSE (150 degrees) at 5 MPH (4 KT):0
Visibility: greater than 7 mile(s):0
Sky conditions: mostly cloudy
Weather: Cumulonimbus clouds observed
Temperature: 68 F (20 C)
Dew Point: 23 F (-5 C)
Relative Humidity: 18%
Pressure (altimeter): 30.33 in. Hg (1027 hPa)
ob: FYWH 231800Z 15004KT 9999 FEW050CB BKN100 20/M05 Q1027 NOSIG
cycle: 18

Station Type Date Time Source
FYWH TAF 2019/05/23 18:49 UTC NOAA

TAF FYWH 231600Z 2318/2418 00000KT 9999 FEW045CB SCT050 PROB30
TEMPO 2319/2400 28006KT -TSRA FEW045CB BKN090

Example: see airport list